createdAt,value
2023-04-27T00:00:22.158Z,9.83
2023-04-27T00:03:24.900Z,9.81
2023-04-27T00:06:29.006Z,9.82
2023-04-27T00:09:31.492Z,9.81
2023-04-27T00:12:34.067Z,9.72
2023-04-27T00:15:36.548Z,9.80
2023-04-27T00:18:39.063Z,9.82
2023-04-27T00:21:42.960Z,9.80
2023-04-27T00:24:45.837Z,9.78
2023-04-27T00:27:48.998Z,9.77
2023-04-27T00:30:54.337Z,9.74
2023-04-27T00:33:56.943Z,9.67
2023-04-27T00:37:00.857Z,9.66
2023-04-27T00:40:05.891Z,9.70
2023-04-27T00:43:08.395Z,9.70
2023-04-27T00:46:11.248Z,9.72
2023-04-27T00:49:13.939Z,9.75
2023-04-27T00:52:18.104Z,9.75
2023-04-27T00:55:21.040Z,9.76
2023-04-27T00:58:23.637Z,9.78
2023-04-27T01:01:26.903Z,9.76
2023-04-27T01:04:30.028Z,9.71
2023-04-27T01:07:34.466Z,9.67
2023-04-27T01:10:37.471Z,9.68
2023-04-27T01:13:40.024Z,9.65
2023-04-27T01:16:42.658Z,9.61
2023-04-27T01:19:45.279Z,9.60
2023-04-27T01:22:49.168Z,9.56
2023-04-27T01:25:53.007Z,9.59
2023-04-27T01:28:55.577Z,9.57
2023-04-27T01:31:58.165Z,9.52
2023-04-27T01:35:00.669Z,9.42
2023-04-27T01:38:03.256Z,9.38
2023-04-27T01:41:09.072Z,9.35
2023-04-27T01:44:12.085Z,9.28
2023-04-27T01:47:16.434Z,9.14
2023-04-27T01:50:18.948Z,9.16
2023-04-27T01:53:21.872Z,9.21
2023-04-27T01:56:25.855Z,9.17
2023-04-27T01:59:28.629Z,9.18
2023-04-27T02:02:31.215Z,9.18
2023-04-27T02:05:33.821Z,9.22
2023-04-27T02:08:36.430Z,9.18
2023-04-27T02:11:40.263Z,9.10
2023-04-27T02:14:42.779Z,9.08
2023-04-27T02:17:46.114Z,9.10
2023-04-27T02:20:48.694Z,9.05
2023-04-27T02:23:51.552Z,9.07
2023-04-27T02:26:55.385Z,9.08
2023-04-27T02:29:57.882Z,9.16
2023-04-27T02:33:01.090Z,9.22
2023-04-27T02:36:03.706Z,9.24
2023-04-27T02:39:06.238Z,9.19
2023-04-27T02:42:10.158Z,9.21
2023-04-27T02:45:12.810Z,9.22
2023-04-27T02:48:15.403Z,9.24
2023-04-27T02:51:17.950Z,9.28
2023-04-27T02:54:20.409Z,9.26
2023-04-27T02:57:24.395Z,9.27
2023-04-27T03:00:27.126Z,9.28
2023-04-27T03:03:29.857Z,9.26
2023-04-27T03:06:32.382Z,9.26
2023-04-27T03:09:34.923Z,9.30
2023-04-27T03:12:38.792Z,9.24
2023-04-27T03:15:41.373Z,9.32
2023-04-27T03:18:43.912Z,9.32
2023-04-27T03:21:46.383Z,9.32
2023-04-27T03:24:48.877Z,9.34
2023-04-27T03:27:52.932Z,9.35
2023-04-27T03:30:55.519Z,9.34
2023-04-27T03:33:58.106Z,9.38
2023-04-27T03:37:00.805Z,9.38
2023-04-27T03:40:07.193Z,9.35
2023-04-27T03:43:11.129Z,9.26
2023-04-27T03:46:13.657Z,9.32
2023-04-27T03:49:16.433Z,9.36
2023-04-27T03:52:19.186Z,9.34
2023-04-27T03:55:22.001Z,9.37
2023-04-27T03:58:25.892Z,9.35
2023-04-27T04:01:28.623Z,9.35
2023-04-27T04:04:31.363Z,9.39
2023-04-27T04:07:34.408Z,9.39
2023-04-27T04:10:37.000Z,9.39
2023-04-27T04:13:42.137Z,9.42
2023-04-27T04:16:44.597Z,9.44
2023-04-27T04:19:47.129Z,9.41
2023-04-27T04:22:49.742Z,9.41
2023-04-27T04:25:52.725Z,9.45
2023-04-27T04:28:57.149Z,9.48
2023-04-27T04:31:59.740Z,9.53
2023-04-27T04:35:02.408Z,9.49
2023-04-27T04:38:04.904Z,9.58
2023-04-27T04:41:07.345Z,9.39
2023-04-27T04:44:11.515Z,9.47
2023-04-27T04:47:14.001Z,9.70
2023-04-27T04:50:16.853Z,9.79
2023-04-27T04:53:19.532Z,9.86
2023-04-27T04:56:22.146Z,9.97
2023-04-27T04:59:26.087Z,10.08
2023-04-27T05:02:28.780Z,10.17
2023-04-27T05:05:31.447Z,10.30
2023-04-27T05:08:34.116Z,10.42
2023-04-27T05:11:36.656Z,10.58
2023-04-27T05:14:40.585Z,10.67
2023-04-27T05:17:43.059Z,10.83
2023-04-27T05:20:45.826Z,11.00
2023-04-27T05:23:48.698Z,11.06
2023-04-27T05:26:51.228Z,11.20
2023-04-27T05:29:55.089Z,11.27
2023-04-27T05:32:57.739Z,11.47
2023-04-27T05:36:00.309Z,11.56
2023-04-27T05:39:02.884Z,11.64
2023-04-27T05:42:06.041Z,11.82
2023-04-27T05:45:10.954Z,11.77
2023-04-27T05:48:14.163Z,11.94
2023-04-27T05:51:17.589Z,12.20
2023-04-27T05:54:20.151Z,12.31
2023-04-27T05:57:22.832Z,12.52
2023-04-27T06:00:26.980Z,12.75
2023-04-27T06:03:30.571Z,12.89
2023-04-27T06:06:33.984Z,13.08
2023-04-27T06:09:36.728Z,13.07
2023-04-27T06:12:39.669Z,13.02
2023-04-27T06:15:43.542Z,13.13
2023-04-27T06:18:46.048Z,13.33
2023-04-27T06:21:48.528Z,13.36
2023-04-27T06:24:51.065Z,13.54
2023-04-27T06:27:53.591Z,13.66
2023-04-27T06:30:57.879Z,13.64
2023-04-27T06:34:01.193Z,13.78
2023-04-27T06:37:03.885Z,13.71
2023-04-27T06:40:08.231Z,13.57
2023-04-27T06:43:11.078Z,13.70
2023-04-27T06:46:15.064Z,13.58
2023-04-27T06:49:17.608Z,13.72
2023-04-27T06:52:20.416Z,14.05
2023-04-27T06:55:23.810Z,14.25
2023-04-27T06:58:27.195Z,14.35
2023-04-27T07:01:31.213Z,14.41
2023-04-27T07:04:33.990Z,14.29
2023-04-27T07:07:36.583Z,14.38
2023-04-27T07:10:39.125Z,14.21
2023-04-27T07:13:41.841Z,14.44
2023-04-27T07:16:46.613Z,14.54
2023-04-27T07:19:49.407Z,14.51
2023-04-27T07:22:52.013Z,14.63
2023-04-27T07:25:54.827Z,14.54
2023-04-27T07:28:57.589Z,14.81
2023-04-27T07:32:01.428Z,14.63
2023-04-27T07:35:05.692Z,14.81
2023-04-27T07:38:08.506Z,15.06
2023-04-27T07:41:11.112Z,15.16
2023-04-27T07:44:13.670Z,15.16
2023-04-27T07:47:18.648Z,15.06
2023-04-27T07:50:24.426Z,15.08
2023-04-27T07:53:27.312Z,15.66
2023-04-27T07:56:29.820Z,15.79
2023-04-27T07:59:32.691Z,15.99
2023-04-27T08:02:36.750Z,15.92
2023-04-27T08:05:39.850Z,16.26
2023-04-27T08:08:42.768Z,16.11
2023-04-27T08:11:45.641Z,16.36
2023-04-27T08:14:48.243Z,16.39
2023-04-27T08:17:52.379Z,16.49
2023-04-27T08:20:55.065Z,16.28
2023-04-27T08:23:57.622Z,16.51
2023-04-27T08:27:00.213Z,16.56
2023-04-27T08:30:02.746Z,16.63
2023-04-27T08:33:06.828Z,16.74
2023-04-27T08:36:09.996Z,17.14
2023-04-27T08:39:12.967Z,17.27
2023-04-27T08:42:16.112Z,17.18
2023-04-27T08:45:19.774Z,17.08
2023-04-27T08:48:23.736Z,16.98
2023-04-27T08:51:27.556Z,17.38
2023-04-27T08:54:30.986Z,17.66
2023-04-27T08:57:33.618Z,17.33
2023-04-27T09:00:40.216Z,17.76
2023-04-27T09:03:46.834Z,18.21
2023-04-27T09:06:50.077Z,18.25
2023-04-27T09:10:03.757Z,18.60
2023-04-27T09:13:06.619Z,18.77
2023-04-27T09:16:09.206Z,18.89
2023-04-27T09:19:13.902Z,19.00
2023-04-27T09:22:16.678Z,18.87
2023-04-27T09:25:26.689Z,18.38
2023-04-27T09:28:30.912Z,18.45
2023-04-27T09:31:34.242Z,18.97
2023-04-27T09:34:41.952Z,19.20
2023-04-27T09:37:44.941Z,18.79
2023-04-27T09:40:47.823Z,19.12
2023-04-27T09:43:50.359Z,19.36
2023-04-27T09:46:54.081Z,19.16
2023-04-27T09:50:00.762Z,19.37
2023-04-27T09:53:03.969Z,18.93
2023-04-27T09:56:22.260Z,19.02
2023-04-27T09:59:47.918Z,19.45
2023-04-27T10:02:58.724Z,19.04
2023-04-27T10:06:33.358Z,19.27
2023-04-27T10:09:37.815Z,19.72
2023-04-27T10:12:40.690Z,19.65
2023-04-27T10:15:43.275Z,19.75
2023-04-27T10:18:52.943Z,18.80
2023-04-27T10:22:00.482Z,18.40
2023-04-27T10:25:14.458Z,18.94
2023-04-27T10:28:17.885Z,19.29
2023-04-27T10:31:20.276Z,19.63
2023-04-27T10:34:22.899Z,18.80
2023-04-27T10:37:39.673Z,19.22
2023-04-27T10:40:42.541Z,19.14
2023-04-27T10:43:45.295Z,19.91
2023-04-27T10:46:52.048Z,18.91
2023-04-27T10:49:55.274Z,19.43
2023-04-27T10:53:03.550Z,20.22
2023-04-27T10:56:07.897Z,20.38
2023-04-27T10:59:10.483Z,20.94
2023-04-27T11:02:13.114Z,21.01
2023-04-27T11:05:19.724Z,21.29
2023-04-27T11:08:24.314Z,21.50
2023-04-27T11:11:26.852Z,21.42
2023-04-27T11:14:30.349Z,22.55
2023-04-27T11:17:33.433Z,22.46
2023-04-27T11:20:36.099Z,22.86
2023-04-27T11:23:40.053Z,22.21
2023-04-27T11:26:42.649Z,22.45
2023-04-27T11:29:45.757Z,21.64
2023-04-27T11:32:48.683Z,22.35
2023-04-27T11:35:51.451Z,22.73
2023-04-27T11:39:00.104Z,21.59
2023-04-27T11:42:16.474Z,21.97
2023-04-27T11:45:19.007Z,21.99
2023-04-27T11:48:22.778Z,22.85
2023-04-27T11:51:26.923Z,23.29
2023-04-27T11:54:31.276Z,23.47
2023-04-27T11:57:36.186Z,23.53
2023-04-27T12:00:38.749Z,22.87
2023-04-27T12:03:41.782Z,23.71
2023-04-27T12:06:44.235Z,23.77
2023-04-27T12:09:48.385Z,23.78
2023-04-27T12:12:50.968Z,23.83
2023-04-27T12:15:53.500Z,23.61
2023-04-27T12:18:56.144Z,24.10
2023-04-27T12:21:59.130Z,24.67
2023-04-27T12:25:03.055Z,24.72
2023-04-27T12:28:06.170Z,25.06
2023-04-27T12:31:08.835Z,25.37
2023-04-27T12:34:11.707Z,25.10
2023-04-27T12:37:14.409Z,24.92
2023-04-27T12:40:18.441Z,26.25
2023-04-27T12:43:21.046Z,25.59
2023-04-27T12:46:23.654Z,26.09
2023-04-27T12:49:27.404Z,28.08
2023-04-27T12:52:30.418Z,30.47
2023-04-27T12:55:34.701Z,29.97
2023-04-27T12:58:37.428Z,29.21
2023-04-27T13:01:39.987Z,28.84
2023-04-27T13:04:42.825Z,29.45
2023-04-27T13:07:45.535Z,29.85
2023-04-27T13:10:49.893Z,31.04
2023-04-27T13:13:52.473Z,31.92
2023-04-27T13:16:55.126Z,30.16
2023-04-27T13:19:57.683Z,29.10
2023-04-27T13:23:00.361Z,28.69
2023-04-27T13:26:04.287Z,31.71
2023-04-27T13:29:06.798Z,32.86
2023-04-27T13:32:09.384Z,32.21
2023-04-27T13:35:12.252Z,30.11
2023-04-27T13:38:14.830Z,28.61
2023-04-27T13:41:18.778Z,30.27
2023-04-27T13:44:21.593Z,33.87
2023-04-27T13:47:24.391Z,37.28
2023-04-27T13:50:26.889Z,40.18
2023-04-27T13:53:29.399Z,40.37
2023-04-27T13:56:33.245Z,38.77
2023-04-27T13:59:35.881Z,39.50
2023-04-27T14:02:38.713Z,38.66
2023-04-27T14:05:41.317Z,38.79
2023-04-27T14:08:43.857Z,35.47
2023-04-27T14:11:56.364Z,32.27
2023-04-27T14:15:00.605Z,30.75
2023-04-27T14:18:03.580Z,33.41
2023-04-27T14:21:06.194Z,34.06
2023-04-27T14:24:08.912Z,31.71
2023-04-27T14:27:12.630Z,32.96
2023-04-27T14:30:15.640Z,32.58
2023-04-27T14:33:18.266Z,30.43
2023-04-27T14:36:20.866Z,29.09
2023-04-27T14:39:23.400Z,26.67
2023-04-27T14:42:27.297Z,26.69
2023-04-27T14:45:39.753Z,26.32
2023-04-27T14:48:46.639Z,26.41
2023-04-27T14:51:49.173Z,26.17
2023-04-27T14:54:51.861Z,25.52
2023-04-27T14:57:55.731Z,24.42
2023-04-27T15:00:58.539Z,24.88
2023-04-27T15:04:01.459Z,25.44
2023-04-27T15:07:04.024Z,27.06
2023-04-27T15:10:07.658Z,29.25
2023-04-27T15:13:11.845Z,29.17
2023-04-27T15:16:14.722Z,30.63
2023-04-27T15:19:17.295Z,32.17
2023-04-27T15:22:19.866Z,29.00
2023-04-27T15:25:22.780Z,26.79
2023-04-27T15:28:26.740Z,25.84
2023-04-27T15:31:29.288Z,25.43
2023-04-27T15:34:32.023Z,25.29
2023-04-27T15:37:36.795Z,26.89
2023-04-27T15:40:39.714Z,26.44
2023-04-27T15:43:43.619Z,25.51
2023-04-27T15:46:46.997Z,24.83
2023-04-27T15:49:57.342Z,23.94
2023-04-27T15:53:00.554Z,23.11
2023-04-27T15:56:03.297Z,22.56
2023-04-27T15:59:08.112Z,22.07
2023-04-27T16:02:11.169Z,21.94
2023-04-27T16:05:13.818Z,22.32
2023-04-27T16:08:16.360Z,22.57
2023-04-27T16:11:18.920Z,22.74
2023-04-27T16:14:23.088Z,23.06
2023-04-27T16:17:25.716Z,23.66
2023-04-27T16:20:30.818Z,23.55
2023-04-27T16:23:33.475Z,23.58
2023-04-27T16:26:35.986Z,23.59
2023-04-27T16:29:39.890Z,23.69
2023-04-27T16:32:42.396Z,23.12
2023-04-27T16:35:45.002Z,23.49
2023-04-27T16:38:47.526Z,25.24
2023-04-27T16:41:51.036Z,25.54
2023-04-27T16:44:55.237Z,27.24
2023-04-27T16:47:59.752Z,31.76
2023-04-27T16:51:02.427Z,32.39
2023-04-27T16:54:05.111Z,29.47
2023-04-27T16:57:08.095Z,30.50
2023-04-27T17:00:13.064Z,28.67
2023-04-27T17:03:15.679Z,25.65
2023-04-27T17:06:18.365Z,23.63
2023-04-27T17:09:20.931Z,22.45
2023-04-27T17:12:23.431Z,21.82
2023-04-27T17:15:28.692Z,21.68
2023-04-27T17:18:33.684Z,21.36
2023-04-27T17:21:36.212Z,20.95
2023-04-27T17:24:39.351Z,20.60
2023-04-27T17:27:41.835Z,20.32
2023-04-27T17:30:45.996Z,20.06
2023-04-27T17:33:48.524Z,19.77
2023-04-27T17:36:51.041Z,19.52
2023-04-27T17:39:54.725Z,19.47
2023-04-27T17:42:57.860Z,19.42
2023-04-27T17:46:01.915Z,19.35
2023-04-27T17:49:12.190Z,19.25
2023-04-27T17:52:14.950Z,19.22
2023-04-27T17:55:17.645Z,19.10
2023-04-27T17:58:20.177Z,18.92
2023-04-27T18:01:24.380Z,18.67
2023-04-27T18:04:27.261Z,18.42
2023-04-27T18:07:29.936Z,18.16
2023-04-27T18:10:32.567Z,17.96
2023-04-27T18:13:35.108Z,17.80
2023-04-27T18:16:39.126Z,17.69
2023-04-27T18:19:41.720Z,17.53
2023-04-27T18:22:44.282Z,17.36
2023-04-27T18:25:46.897Z,17.14
2023-04-27T18:28:49.496Z,16.83
2023-04-27T18:31:54.051Z,16.71
2023-04-27T18:34:56.857Z,16.50
2023-04-27T18:37:59.393Z,16.31
2023-04-27T18:41:01.935Z,16.11
2023-04-27T18:44:05.756Z,15.96
2023-04-27T18:47:09.718Z,15.70
2023-04-27T18:50:13.742Z,15.54
2023-04-27T18:53:16.547Z,15.40
2023-04-27T18:56:19.308Z,15.23
2023-04-27T18:59:21.936Z,15.25
2023-04-27T19:02:26.217Z,15.09
2023-04-27T19:05:28.900Z,15.06
2023-04-27T19:08:31.483Z,14.99
2023-04-27T19:11:33.984Z,14.87
2023-04-27T19:14:36.544Z,14.72
2023-04-27T19:17:41.327Z,14.60
2023-04-27T19:20:43.988Z,14.51
2023-04-27T19:23:46.603Z,14.37
2023-04-27T19:26:49.329Z,14.30
2023-04-27T19:29:53.997Z,14.16
2023-04-27T19:32:58.101Z,14.01
2023-04-27T19:36:00.826Z,13.99
2023-04-27T19:39:03.813Z,14.09
2023-04-27T19:42:06.496Z,14.11
2023-04-27T19:45:10.752Z,14.09
2023-04-27T19:48:14.597Z,14.09
2023-04-27T19:51:17.159Z,14.02
2023-04-27T19:54:19.699Z,14.00
2023-04-27T19:57:22.727Z,14.13
2023-04-27T20:00:25.559Z,14.09
2023-04-27T20:03:29.751Z,14.04
2023-04-27T20:06:33.258Z,13.86
2023-04-27T20:09:35.975Z,13.74
2023-04-27T20:12:54.485Z,13.68
2023-04-27T20:15:59.178Z,13.71
2023-04-27T20:19:05.276Z,13.74
2023-04-27T20:22:07.834Z,13.66
2023-04-27T20:25:10.660Z,13.53
2023-04-27T20:28:13.284Z,13.48
2023-04-27T20:31:15.924Z,13.51
2023-04-27T20:34:19.984Z,13.46
2023-04-27T20:37:23.181Z,13.44
2023-04-27T20:40:26.724Z,13.40
2023-04-27T20:43:29.073Z,13.37
2023-04-27T20:46:32.013Z,13.40
2023-04-27T20:49:35.961Z,13.46
2023-04-27T20:52:38.780Z,13.44
2023-04-27T20:55:41.510Z,13.43
2023-04-27T20:58:44.162Z,13.32
2023-04-27T21:01:46.759Z,13.35
2023-04-27T21:04:50.952Z,13.37
2023-04-27T21:07:53.927Z,13.36
2023-04-27T21:10:57.213Z,13.34
2023-04-27T21:13:59.740Z,13.35
2023-04-27T21:17:02.388Z,13.27
2023-04-27T21:20:07.700Z,13.21
2023-04-27T21:23:10.432Z,13.13
2023-04-27T21:26:13.050Z,13.14
2023-04-27T21:29:16.405Z,13.20
2023-04-27T21:32:19.066Z,13.21
2023-04-27T21:35:23.174Z,13.26
2023-04-27T21:38:25.800Z,13.29
2023-04-27T21:41:28.336Z,13.23
2023-04-27T21:44:30.990Z,13.09
2023-04-27T21:47:33.530Z,13.09
2023-04-27T21:50:37.557Z,13.09
2023-04-27T21:53:40.341Z,13.01
2023-04-27T21:56:42.848Z,12.87
2023-04-27T21:59:45.352Z,12.74
2023-04-27T22:02:48.500Z,12.64
2023-04-27T22:05:52.647Z,12.57
2023-04-27T22:08:55.271Z,12.50
2023-04-27T22:11:57.808Z,12.40
2023-04-27T22:15:00.360Z,12.35
2023-04-27T22:18:06.615Z,12.33
2023-04-27T22:21:12.248Z,12.26
2023-04-27T22:24:15.017Z,12.16
2023-04-27T22:27:17.761Z,12.18
2023-04-27T22:30:20.260Z,12.16
2023-04-27T22:33:22.810Z,12.22
2023-04-27T22:36:26.749Z,12.15
2023-04-27T22:39:29.277Z,12.12
2023-04-27T22:42:31.783Z,12.07
2023-04-27T22:45:35.274Z,12.07
2023-04-27T22:48:39.193Z,12.16
2023-04-27T22:51:43.591Z,12.18
2023-04-27T22:54:46.093Z,12.08
2023-04-27T22:57:49.987Z,12.17
2023-04-27T23:00:52.514Z,12.20
2023-04-27T23:03:55.155Z,12.11
2023-04-27T23:06:59.027Z,12.01
2023-04-27T23:10:02.703Z,12.08
2023-04-27T23:13:05.274Z,12.12
2023-04-27T23:16:09.923Z,12.22
2023-04-27T23:19:12.754Z,12.33
2023-04-27T23:22:16.716Z,12.44
2023-04-27T23:25:19.222Z,12.56
2023-04-27T23:28:22.460Z,12.62
2023-04-27T23:31:25.082Z,12.73
2023-04-27T23:34:27.622Z,12.78
2023-04-27T23:37:31.484Z,12.88
2023-04-27T23:40:34.045Z,12.93
2023-04-27T23:43:36.498Z,12.99
2023-04-27T23:46:39.235Z,13.04
2023-04-27T23:49:43.915Z,13.08
2023-04-27T23:52:47.849Z,13.12
2023-04-27T23:55:50.397Z,13.14
2023-04-27T23:58:52.898Z,13.13
